Time;durP1;ratioP1;P1;durP2;ratioP2;P2;SDS_P1;SDS_P2;PMS_P1;PMS_P2;Temp;Humidity;BMP_temperature;BMP_pressure;BME280_temperature;BME280_humidity;BME280_pressure;Samples;Min_cycle;Max_cycle;Signal;HPM_P1;HPM_P2
2023/11/29 00:02:03;;;;;;;15.23;7.30;;;;;;;;;;5071851;28;20364;-81
2023/11/29 00:04:28;;;;;;;18.90;7.77;;;;;;;;;;5071952;28;20111;-81
2023/11/29 00:06:53;;;;;;;19.67;7.60;;;;;;;;;;5071931;28;20119;-81
2023/11/29 00:09:18;;;;;;;23.93;8.40;;;;;;;;;;5073220;28;20017;-81
2023/11/29 00:11:44;;;;;;;18.40;8.03;;;;;;;;;;5071680;28;20033;-81
2023/11/29 00:14:10;;;;;;;15.37;6.97;;;;;;;;;;5071094;28;20025;-81
2023/11/29 00:16:35;;;;;;;20.00;7.73;;;;;;;;;;5071765;28;20170;-82
2023/11/29 00:19:00;;;;;;;19.67;8.53;;;;;;;;;;5071619;28;20070;-82
2023/11/29 00:21:27;;;;;;;20.17;8.20;;;;;;;;;;5071254;28;20086;-82
2023/11/29 00:23:53;;;;;;;16.27;7.47;;;;;;;;;;5071614;28;20023;-81
2023/11/29 00:26:22;;;;;;;15.57;7.33;;;;;;;;;;5071763;28;20384;-81
2023/11/29 00:28:47;;;;;;;17.07;7.03;;;;;;;;;;5071459;28;20388;-81
2023/11/29 00:31:13;;;;;;;16.17;7.67;;;;;;;;;;5072700;28;20027;-81
2023/11/29 00:33:38;;;;;;;15.37;7.23;;;;;;;;;;5071536;28;20016;-81
2023/11/29 00:36:03;;;;;;;14.63;7.00;;;;;;;;;;5072948;28;20298;-81
2023/11/29 00:38:28;;;;;;;17.47;7.40;;;;;;;;;;5071075;28;20373;-81
2023/11/29 00:40:54;;;;;;;19.87;7.40;;;;;;;;;;5071409;28;20012;-81
2023/11/29 00:43:19;;;;;;;15.30;6.60;;;;;;;;;;5072766;28;20145;-81
2023/11/29 00:45:44;;;;;;;19.50;6.90;;;;;;;;;;5071358;28;20012;-81
2023/11/29 00:48:09;;;;;;;16.37;6.37;;;;;;;;;;5071188;28;20050;-81
2023/11/29 00:50:34;;;;;;;17.20;7.27;;;;;;;;;;5071207;28;20017;-82
2023/11/29 00:53:00;;;;;;;15.17;5.70;;;;;;;;;;5071371;28;20027;-82
2023/11/29 00:55:25;;;;;;;16.37;6.63;;;;;;;;;;5071172;28;20028;-82
2023/11/29 00:57:50;;;;;;;18.20;6.97;;;;;;;;;;5071142;28;20024;-81
2023/11/29 01:00:16;;;;;;;16.03;6.00;;;;;;;;;;5070937;28;20051;-81
2023/11/29 01:02:41;;;;;;;14.30;6.13;;;;;;;;;;5071130;28;20027;-81
2023/11/29 01:05:07;;;;;;;15.93;6.97;;;;;;;;;;5071108;28;20040;-81
2023/11/29 01:07:32;;;;;;;16.87;6.57;;;;;;;;;;5072438;28;20017;-81
2023/11/29 01:09:57;;;;;;;16.40;5.90;;;;;;;;;;5070887;28;20115;-80
2023/11/29 01:12:22;;;;;;;16.07;5.87;;;;;;;;;;5071082;28;20422;-81
2023/11/29 01:14:48;;;;;;;13.27;5.90;;;;;;;;;;5070923;28;20039;-82
2023/11/29 01:17:13;;;;;;;13.13;5.57;;;;;;;;;;5071014;28;20135;-81
2023/11/29 01:19:39;;;;;;;12.70;5.13;;;;;;;;;;5070588;28;20052;-81
2023/11/29 01:22:04;;;;;;;9.93;4.80;;;;;;;;;;5072331;28;20013;-81
2023/11/29 01:24:29;;;;;;;12.80;6.00;;;;;;;;;;5070943;28;20384;-81
2023/11/29 01:26:55;;;;;;;13.90;5.60;;;;;;;;;;5074041;28;20372;-82
2023/11/29 01:29:20;;;;;;;13.07;5.27;;;;;;;;;;5074944;28;20029;-82
2023/11/29 01:31:45;;;;;;;13.93;5.30;;;;;;;;;;5074936;28;20503;-81
2023/11/29 01:34:10;;;;;;;14.17;5.33;;;;;;;;;;5075030;28;20025;-81
2023/11/29 01:36:40;;;;;;;12.03;5.40;;;;;;;;;;5075381;28;20020;-81
2023/11/29 01:39:05;;;;;;;13.07;5.60;;;;;;;;;;5074546;28;20016;-81
2023/11/29 01:41:30;;;;;;;10.67;4.53;;;;;;;;;;5076227;28;20040;-82
2023/11/29 01:43:56;;;;;;;14.00;5.80;;;;;;;;;;5074751;28;20035;-81
2023/11/29 01:46:21;;;;;;;11.83;5.30;;;;;;;;;;5074911;28;20020;-81
2023/11/29 01:48:46;;;;;;;13.33;5.07;;;;;;;;;;5075877;28;20464;-81
2023/11/29 01:51:12;;;;;;;17.30;5.47;;;;;;;;;;5074116;28;20406;-81
2023/11/29 01:53:38;;;;;;;14.80;5.17;;;;;;;;;;5073999;28;20020;-81
2023/11/29 01:56:03;;;;;;;11.47;5.30;;;;;;;;;;5074284;28;20031;-81
2023/11/29 01:58:28;;;;;;;12.67;5.47;;;;;;;;;;5075628;28;20020;-81
2023/11/29 02:00:54;;;;;;;10.73;5.17;;;;;;;;;;5073712;28;20016;-82
2023/11/29 02:03:20;;;;;;;16.27;5.20;;;;;;;;;;5063397;28;20049;-82
2023/11/29 02:05:45;;;;;;;10.63;5.50;;;;;;;;;;5074127;28;20019;-82
2023/11/29 02:08:11;;;;;;;12.57;5.53;;;;;;;;;;5074183;28;20017;-81
2023/11/29 02:10:36;;;;;;;12.40;5.57;;;;;;;;;;5074195;28;20017;-81
2023/11/29 02:13:02;;;;;;;13.23;5.60;;;;;;;;;;5074014;28;20035;-81
2023/11/29 02:15:27;;;;;;;20.73;5.67;;;;;;;;;;5073907;28;20607;-82
2023/11/29 02:17:52;;;;;;;13.27;5.07;;;;;;;;;;5073944;28;20119;-81
2023/11/29 02:20:18;;;;;;;11.60;5.27;;;;;;;;;;5073818;28;20074;-81
2023/11/29 02:22:47;;;;;;;13.40;5.93;;;;;;;;;;5073722;28;20384;-81
2023/11/29 02:25:12;;;;;;;13.67;5.03;;;;;;;;;;5073891;28;20376;-82
2023/11/29 02:27:37;;;;;;;9.53;5.00;;;;;;;;;;5073831;28;20020;-81
2023/11/29 02:30:03;;;;;;;9.87;4.37;;;;;;;;;;5074936;28;20112;-81
2023/11/29 02:32:28;;;;;;;10.87;4.50;;;;;;;;;;5073677;28;20428;-81
2023/11/29 02:34:53;;;;;;;10.40;5.03;;;;;;;;;;5073356;28;20036;-81
2023/11/29 02:37:18;;;;;;;14.20;4.83;;;;;;;;;;5072785;28;20021;-82
2023/11/29 02:39:44;;;;;;;9.73;4.50;;;;;;;;;;5074905;28;20013;-82
2023/11/29 02:42:09;;;;;;;10.83;4.40;;;;;;;;;;5074794;28;20089;-82
2023/11/29 02:44:34;;;;;;;14.73;4.67;;;;;;;;;;5073448;28;20024;-82
2023/11/29 02:46:59;;;;;;;10.37;4.90;;;;;;;;;;5073460;28;20059;-81
2023/11/29 02:49:25;;;;;;;10.53;4.93;;;;;;;;;;5073445;28;20024;-82
2023/11/29 02:51:50;;;;;;;12.67;4.57;;;;;;;;;;5073479;28;20035;-82
2023/11/29 02:54:17;;;;;;;11.90;4.47;;;;;;;;;;5073446;28;20429;-82
2023/11/29 02:56:43;;;;;;;10.43;4.87;;;;;;;;;;5074552;28;20028;-82
2023/11/29 02:59:08;;;;;;;9.80;3.97;;;;;;;;;;5073208;28;20036;-82
2023/11/29 03:01:33;;;;;;;11.33;3.63;;;;;;;;;;5073171;28;20025;-81
2023/11/29 03:03:58;;;;;;;9.00;4.40;;;;;;;;;;5073287;28;20059;-81
2023/11/29 03:06:24;;;;;;;9.60;3.77;;;;;;;;;;5072910;28;20032;-82
2023/11/29 03:08:49;;;;;;;9.47;3.87;;;;;;;;;;5073229;28;20138;-82
2023/11/29 03:11:14;;;;;;;8.83;3.53;;;;;;;;;;5073266;28;20037;-82
2023/11/29 03:13:39;;;;;;;9.80;3.90;;;;;;;;;;5072904;28;20066;-82
2023/11/29 03:16:05;;;;;;;6.77;3.20;;;;;;;;;;5072854;28;20028;-82
2023/11/29 03:18:30;;;;;;;7.00;2.77;;;;;;;;;;5072850;28;20028;-82
2023/11/29 03:20:55;;;;;;;13.73;3.30;;;;;;;;;;5061867;28;20017;-82
2023/11/29 03:23:21;;;;;;;9.53;4.20;;;;;;;;;;5086369;28;20021;-82
2023/11/29 03:25:46;;;;;;;8.00;3.97;;;;;;;;;;5097027;28;20032;-82
2023/11/29 03:28:11;;;;;;;11.70;4.53;;;;;;;;;;5072658;28;20487;-82
2023/11/29 03:30:36;;;;;;;13.07;5.33;;;;;;;;;;5072666;28;20021;-81
2023/11/29 03:33:02;;;;;;;15.23;5.50;;;;;;;;;;5072639;28;20498;-82
2023/11/29 03:35:27;;;;;;;12.63;4.53;;;;;;;;;;5072185;28;20328;-81
2023/11/29 03:37:52;;;;;;;8.73;4.20;;;;;;;;;;5072436;28;20032;-82
2023/11/29 03:40:17;;;;;;;15.63;5.07;;;;;;;;;;5072359;28;20032;-82
2023/11/29 03:42:42;;;;;;;13.60;4.87;;;;;;;;;;5072700;28;20055;-82
2023/11/29 03:45:08;;;;;;;12.07;4.97;;;;;;;;;;5072286;28;20486;-82
2023/11/29 03:47:33;;;;;;;12.43;4.17;;;;;;;;;;5072153;28;20024;-82
2023/11/29 03:49:58;;;;;;;10.57;4.80;;;;;;;;;;5071343;28;20023;-82
2023/11/29 03:52:24;;;;;;;10.37;4.47;;;;;;;;;;5072274;28;20020;-82
2023/11/29 03:54:50;;;;;;;12.93;5.47;;;;;;;;;;5073628;28;20016;-82
2023/11/29 03:57:15;;;;;;;12.07;4.77;;;;;;;;;;5072073;28;20028;-82
2023/11/29 03:59:41;;;;;;;10.77;4.93;;;;;;;;;;5071632;28;20032;-82
2023/11/29 04:02:06;;;;;;;11.13;5.37;;;;;;;;;;5072100;28;20013;-82
2023/11/29 04:04:31;;;;;;;10.70;4.23;;;;;;;;;;5072031;28;20027;-82
2023/11/29 04:07:00;;;;;;;9.10;4.33;;;;;;;;;;5071866;28;20021;-82
2023/11/29 04:09:25;;;;;;;12.07;4.43;;;;;;;;;;5071644;28;20021;-81
2023/11/29 04:11:50;;;;;;;9.10;4.57;;;;;;;;;;5071760;28;20035;-82
2023/11/29 04:14:15;;;;;;;10.33;4.30;;;;;;;;;;5071520;28;20032;-81
2023/11/29 04:16:41;;;;;;;11.97;3.80;;;;;;;;;;5071819;28;20089;-82
2023/11/29 04:19:06;;;;;;;9.80;4.47;;;;;;;;;;5071373;28;20059;-81
2023/11/29 04:21:32;;;;;;;8.83;4.47;;;;;;;;;;5062634;28;20017;-81
2023/11/29 04:23:58;;;;;;;8.37;4.37;;;;;;;;;;5071699;28;20017;-82
2023/11/29 04:26:26;;;;;;;7.17;3.23;;;;;;;;;;5071544;28;20017;-82
2023/11/29 04:28:51;;;;;;;6.07;2.70;;;;;;;;;;5071539;28;20016;-82
2023/11/29 04:31:16;;;;;;;9.70;4.20;;;;;;;;;;5071595;28;20135;-82
2023/11/29 04:33:41;;;;;;;8.37;4.07;;;;;;;;;;5071453;28;20077;-82
2023/11/29 04:36:07;;;;;;;7.67;3.37;;;;;;;;;;5072838;28;20020;-82
2023/11/29 04:38:32;;;;;;;10.17;3.80;;;;;;;;;;5071280;28;20031;-82
2023/11/29 04:40:57;;;;;;;8.40;4.50;;;;;;;;;;5071158;28;20107;-82
2023/11/29 04:43:23;;;;;;;6.80;3.47;;;;;;;;;;5071306;28;20058;-81
2023/11/29 04:45:48;;;;;;;8.60;3.23;;;;;;;;;;5072732;28;20016;-81
2023/11/29 04:48:14;;;;;;;12.17;4.03;;;;;;;;;;5072648;28;20025;-82
2023/11/29 04:50:39;;;;;;;9.37;3.83;;;;;;;;;;5071125;28;20128;-82
2023/11/29 04:53:04;;;;;;;10.13;4.40;;;;;;;;;;5071083;28;20383;-82
2023/11/29 04:55:30;;;;;;;10.00;4.57;;;;;;;;;;5071331;28;20115;-82
2023/11/29 04:57:55;;;;;;;8.83;4.27;;;;;;;;;;5071082;28;20024;-83
2023/11/29 05:00:20;;;;;;;14.93;6.03;;;;;;;;;;5070734;28;20028;-82
2023/11/29 05:02:45;;;;;;;9.67;4.83;;;;;;;;;;5070924;28;20107;-82
2023/11/29 05:05:11;;;;;;;10.60;5.43;;;;;;;;;;5071092;28;20016;-82
2023/11/29 05:07:36;;;;;;;10.43;4.93;;;;;;;;;;5072422;28;20494;-82
2023/11/29 05:10:01;;;;;;;10.47;5.93;;;;;;;;;;5072366;28;20023;-82
2023/11/29 05:12:26;;;;;;;9.90;5.17;;;;;;;;;;5070932;28;20024;-82
2023/11/29 05:14:52;;;;;;;12.47;5.30;;;;;;;;;;5070949;28;20032;-82
2023/11/29 05:17:17;;;;;;;12.87;5.60;;;;;;;;;;5070944;28;20502;-82
2023/11/29 05:19:42;;;;;;;12.97;5.13;;;;;;;;;;5069815;28;20039;-81
2023/11/29 05:22:07;;;;;;;10.83;5.10;;;;;;;;;;5050791;28;20048;-81
2023/11/29 05:24:33;;;;;;;11.93;5.73;;;;;;;;;;5050949;28;20021;-82
2023/11/29 05:26:58;;;;;;;10.77;4.43;;;;;;;;;;5050893;28;20025;-82
2023/11/29 05:29:23;;;;;;;10.67;4.17;;;;;;;;;;5050843;28;20040;-82
2023/11/29 05:31:48;;;;;;;13.67;5.30;;;;;;;;;;5070877;28;20021;-82
2023/11/29 05:34:14;;;;;;;12.63;4.50;;;;;;;;;;5070752;28;20025;-82
2023/11/29 05:36:39;;;;;;;11.97;5.70;;;;;;;;;;5070785;28;20035;-82
2023/11/29 05:39:04;;;;;;;11.03;5.33;;;;;;;;;;5070593;28;20056;-82
2023/11/29 05:41:29;;;;;;;11.00;4.37;;;;;;;;;;5071971;28;20467;-82
2023/11/29 05:43:56;;;;;;;13.40;5.70;;;;;;;;;;5070645;28;20024;-82
2023/11/29 05:46:21;;;;;;;12.63;5.83;;;;;;;;;;5070675;28;20387;-82
2023/11/29 05:48:47;;;;;;;15.90;6.43;;;;;;;;;;5070703;28;20109;-82
2023/11/29 05:51:13;;;;;;;8.47;4.73;;;;;;;;;;5070316;28;20040;-82
2023/11/29 05:53:38;;;;;;;10.33;4.80;;;;;;;;;;5071996;28;20468;-82
2023/11/29 05:56:04;;;;;;;12.80;5.50;;;;;;;;;;5070688;28;20036;-81
2023/11/29 05:58:29;;;;;;;11.73;6.50;;;;;;;;;;5070580;28;20368;-82
2023/11/29 06:00:54;;;;;;;10.53;5.27;;;;;;;;;;5070419;28;20048;-81
2023/11/29 06:03:21;;;;;;;13.87;5.73;;;;;;;;;;5070525;28;20051;-82
2023/11/29 06:05:47;;;;;;;11.27;5.23;;;;;;;;;;5070465;28;20024;-82
2023/11/29 06:08:12;;;;;;;11.60;4.37;;;;;;;;;;5070545;28;20021;-82
2023/11/29 06:10:38;;;;;;;8.37;4.70;;;;;;;;;;5070319;28;20460;-82
2023/11/29 06:13:03;;;;;;;9.87;5.00;;;;;;;;;;5072151;28;20025;-82
2023/11/29 06:15:28;;;;;;;10.70;4.80;;;;;;;;;;5073969;28;20384;-82
2023/11/29 06:17:54;;;;;;;10.43;5.53;;;;;;;;;;5073950;28;20032;-82
2023/11/29 06:20:21;;;;;;;20.00;5.57;;;;;;;;;;5070404;28;20483;-82
2023/11/29 06:22:46;;;;;;;9.87;5.50;;;;;;;;;;5070596;28;20021;-82
2023/11/29 06:25:12;;;;;;;9.83;4.60;;;;;;;;;;5053836;28;20422;-81
2023/11/29 06:27:38;;;;;;;9.70;4.70;;;;;;;;;;5070576;28;20029;-82
2023/11/29 06:30:04;;;;;;;10.00;5.27;;;;;;;;;;5073734;28;20034;-82
2023/11/29 06:32:29;;;;;;;11.57;4.60;;;;;;;;;;5073734;28;20032;-81
2023/11/29 06:34:56;;;;;;;9.83;5.37;;;;;;;;;;5073664;28;20043;-82
2023/11/29 06:37:21;;;;;;;10.43;4.17;;;;;;;;;;5073786;28;20161;-82
2023/11/29 06:39:46;;;;;;;10.67;4.70;;;;;;;;;;5073462;28;20115;-81
2023/11/29 06:42:13;;;;;;;9.90;4.37;;;;;;;;;;5073607;28;20029;-81
2023/11/29 06:44:38;;;;;;;12.77;4.90;;;;;;;;;;5073668;28;20027;-82
2023/11/29 06:47:04;;;;;;;9.17;4.00;;;;;;;;;;5073522;28;20028;-81
2023/11/29 06:49:29;;;;;;;8.10;3.90;;;;;;;;;;5074777;28;20035;-82
2023/11/29 06:51:54;;;;;;;8.33;4.10;;;;;;;;;;5073350;28;20073;-82
2023/11/29 06:54:19;;;;;;;6.33;2.53;;;;;;;;;;5073463;28;20036;-82
2023/11/29 06:56:46;;;;;;;7.47;3.67;;;;;;;;;;5073398;28;20024;-82
2023/11/29 06:59:11;;;;;;;9.93;4.53;;;;;;;;;;5073285;28;20029;-82
2023/11/29 07:01:37;;;;;;;10.10;3.40;;;;;;;;;;5073381;28;20046;-82
2023/11/29 07:04:03;;;;;;;10.67;4.03;;;;;;;;;;5073318;28;20107;-82
2023/11/29 07:06:28;;;;;;;9.43;4.13;;;;;;;;;;5073469;28;20016;-82
2023/11/29 07:08:54;;;;;;;9.47;4.23;;;;;;;;;;5072853;28;20036;-82
2023/11/29 07:11:19;;;;;;;15.57;5.33;;;;;;;;;;5073246;28;20020;-82
2023/11/29 07:13:44;;;;;;;7.63;4.23;;;;;;;;;;5072421;28;20024;-81
2023/11/29 07:16:09;;;;;;;8.27;4.10;;;;;;;;;;5072462;28;20379;-81
2023/11/29 07:18:37;;;;;;;7.63;3.43;;;;;;;;;;5072581;28;20031;-82
2023/11/29 07:21:02;;;;;;;14.53;4.83;;;;;;;;;;5071790;28;20427;-82
2023/11/29 07:23:27;;;;;;;9.90;4.87;;;;;;;;;;5072433;28;20062;-82
2023/11/29 07:25:53;;;;;;;8.77;4.83;;;;;;;;;;5073590;28;20028;-82
2023/11/29 07:28:18;;;;;;;9.17;4.43;;;;;;;;;;5072503;28;20020;-82
2023/11/29 07:30:43;;;;;;;9.57;4.60;;;;;;;;;;5072765;28;20028;-82
2023/11/29 07:33:09;;;;;;;8.67;3.87;;;;;;;;;;5072551;28;20111;-82
2023/11/29 07:35:34;;;;;;;7.40;4.13;;;;;;;;;;5072243;28;20392;-82
2023/11/29 07:38:00;;;;;;;10.87;4.13;;;;;;;;;;5072223;28;20033;-82
2023/11/29 07:40:25;;;;;;;7.03;4.03;;;;;;;;;;5072187;28;20016;-81
2023/11/29 07:42:50;;;;;;;9.07;4.37;;;;;;;;;;5072362;28;20062;-82
2023/11/29 07:45:16;;;;;;;11.07;5.13;;;;;;;;;;5072052;28;20025;-82
2023/11/29 07:47:41;;;;;;;10.30;5.00;;;;;;;;;;5072123;28;20434;-82
2023/11/29 07:50:06;;;;;;;9.93;4.70;;;;;;;;;;5072163;28;20402;-82
2023/11/29 07:52:35;;;;;;;8.23;4.20;;;;;;;;;;5070162;28;20035;-81
2023/11/29 07:55:01;;;;;;;12.53;4.60;;;;;;;;;;5072836;28;20028;-82
2023/11/29 07:57:26;;;;;;;9.47;3.80;;;;;;;;;;5072031;28;20039;-82
2023/11/29 07:59:51;;;;;;;7.93;3.33;;;;;;;;;;5068161;28;20021;-81
2023/11/29 08:02:16;;;;;;;13.47;4.87;;;;;;;;;;5054762;28;20029;-82
2023/11/29 08:04:42;;;;;;;9.23;4.63;;;;;;;;;;5096551;28;20027;-82
2023/11/29 08:07:07;;;;;;;11.50;5.90;;;;;;;;;;5071549;28;20020;-82
2023/11/29 08:09:32;;;;;;;9.57;3.80;;;;;;;;;;5071214;28;20040;-82
2023/11/29 08:11:57;;;;;;;7.47;3.53;;;;;;;;;;5071730;28;20058;-82
2023/11/29 08:14:23;;;;;;;10.63;4.33;;;;;;;;;;5071395;28;20183;-82
2023/11/29 08:16:48;;;;;;;10.17;4.60;;;;;;;;;;5071688;28;20028;-82
2023/11/29 08:19:14;;;;;;;8.23;4.00;;;;;;;;;;5071143;28;20032;-82
2023/11/29 08:21:40;;;;;;;11.60;5.10;;;;;;;;;;5070826;28;20053;-81
2023/11/29 08:24:05;;;;;;;9.67;3.73;;;;;;;;;;5071487;28;20028;-82
2023/11/29 08:26:31;;;;;;;12.33;5.23;;;;;;;;;;5071323;28;20067;-82
2023/11/29 08:28:56;;;;;;;8.53;4.03;;;;;;;;;;5071399;28;20052;-83
2023/11/29 08:31:21;;;;;;;8.27;4.33;;;;;;;;;;5071254;28;20399;-82
2023/11/29 08:33:46;;;;;;;8.60;4.40;;;;;;;;;;5070894;28;20446;-82
2023/11/29 08:36:12;;;;;;;8.40;3.80;;;;;;;;;;5070760;28;20035;-82
2023/11/29 08:38:37;;;;;;;11.17;4.43;;;;;;;;;;5070658;28;20032;-82
2023/11/29 08:41:02;;;;;;;10.87;4.47;;;;;;;;;;5066120;28;20052;-82
2023/11/29 08:43:27;;;;;;;11.43;4.23;;;;;;;;;;5065093;28;20052;-81
2023/11/29 08:45:53;;;;;;;6.90;3.53;;;;;;;;;;5071105;28;20525;-82
2023/11/29 08:48:18;;;;;;;9.37;4.60;;;;;;;;;;5054575;28;20012;-81
2023/11/29 08:50:43;;;;;;;9.43;4.60;;;;;;;;;;5071199;28;20051;-82
2023/11/29 08:53:08;;;;;;;7.27;3.90;;;;;;;;;;5070193;28;20025;-81
2023/11/29 08:55:42;;;;;;;11.27;4.63;;;;;;;;;;5066124;28;20040;-81
2023/11/29 08:58:07;;;;;;;10.10;4.97;;;;;;;;;;5078134;28;20073;-82
2023/11/29 09:00:32;;;;;;;5.97;3.57;;;;;;;;;;5080793;28;20029;-82
2023/11/29 09:02:58;;;;;;;8.67;3.57;;;;;;;;;;5071253;28;20035;-82
2023/11/29 09:05:23;;;;;;;8.13;3.50;;;;;;;;;;5087711;28;20020;-82
2023/11/29 09:07:48;;;;;;;10.40;4.10;;;;;;;;;;5075844;28;20028;-82
2023/11/29 09:10:13;;;;;;;9.47;3.67;;;;;;;;;;5083607;28;20513;-82
2023/11/29 09:12:39;;;;;;;6.00;3.53;;;;;;;;;;5070975;28;20381;-82
2023/11/29 09:15:05;;;;;;;11.63;4.07;;;;;;;;;;5071007;28;20479;-82
2023/11/29 09:17:32;;;;;;;8.00;3.53;;;;;;;;;;5069092;28;20032;-81
2023/11/29 09:19:57;;;;;;;7.53;3.90;;;;;;;;;;5068062;28;20021;-82
2023/11/29 09:22:22;;;;;;;8.67;4.60;;;;;;;;;;5071722;28;20024;-82
2023/11/29 09:24:48;;;;;;;10.73;4.60;;;;;;;;;;5071178;28;20033;-83
2023/11/29 09:27:14;;;;;;;13.23;5.07;;;;;;;;;;5071113;28;20028;-82
2023/11/29 09:29:39;;;;;;;13.07;5.33;;;;;;;;;;5070912;28;20532;-82
2023/11/29 09:32:04;;;;;;;8.67;4.20;;;;;;;;;;5077231;28;20462;-82
2023/11/29 09:34:30;;;;;;;12.70;5.07;;;;;;;;;;5080271;28;20119;-81
2023/11/29 09:36:59;;;;;;;14.53;4.07;;;;;;;;;;5071607;28;20119;-82
2023/11/29 09:39:25;;;;;;;10.43;5.00;;;;;;;;;;5072958;28;20048;-81
2023/11/29 09:41:51;;;;;;;8.03;4.27;;;;;;;;;;5065903;28;20021;-81
2023/11/29 09:44:16;;;;;;;7.87;4.10;;;;;;;;;;5085242;28;20033;-81
2023/11/29 09:46:42;;;;;;;8.23;4.30;;;;;;;;;;5055609;28;20021;-81
2023/11/29 09:49:08;;;;;;;8.77;4.60;;;;;;;;;;5072192;28;20024;-81
2023/11/29 09:51:33;;;;;;;10.90;4.70;;;;;;;;;;5072933;28;20075;-84
2023/11/29 09:53:58;;;;;;;9.67;3.87;;;;;;;;;;5072251;28;20472;-82
2023/11/29 09:56:23;;;;;;;10.47;3.80;;;;;;;;;;5072408;28;20059;-82
2023/11/29 09:58:49;;;;;;;8.23;3.63;;;;;;;;;;5073085;28;20032;-81
2023/11/29 10:01:15;;;;;;;6.23;3.33;;;;;;;;;;5073985;28;20044;-82
2023/11/29 10:03:40;;;;;;;8.27;3.60;;;;;;;;;;5073484;28;20032;-82
2023/11/29 10:06:05;;;;;;;8.07;3.17;;;;;;;;;;5072883;28;20025;-81
2023/11/29 10:08:31;;;;;;;4.97;2.90;;;;;;;;;;5074041;28;20101;-82
2023/11/29 10:10:56;;;;;;;7.83;3.00;;;;;;;;;;5067918;28;20028;-81
2023/11/29 10:13:22;;;;;;;7.20;3.00;;;;;;;;;;5063855;28;20103;-81
2023/11/29 10:15:48;;;;;;;7.40;2.77;;;;;;;;;;5073210;28;20036;-82
2023/11/29 10:18:14;;;;;;;9.10;3.50;;;;;;;;;;5073887;28;20044;-82
2023/11/29 10:20:43;;;;;;;6.67;3.07;;;;;;;;;;5067621;28;20056;-82
2023/11/29 10:23:10;;;;;;;5.83;2.83;;;;;;;;;;5071661;28;20090;-82
2023/11/29 10:25:36;;;;;;;7.87;3.73;;;;;;;;;;5072965;28;20066;-80
2023/11/29 10:28:01;;;;;;;6.33;3.23;;;;;;;;;;5073528;28;20020;-82
2023/11/29 10:30:26;;;;;;;12.30;3.47;;;;;;;;;;5074097;28;20056;-82
2023/11/29 10:32:52;;;;;;;11.37;3.10;;;;;;;;;;5059927;28;20021;-82
2023/11/29 10:35:18;;;;;;;9.43;3.90;;;;;;;;;;5068950;28;20017;-82
2023/11/29 10:37:44;;;;;;;9.80;3.17;;;;;;;;;;5067051;28;20444;-82
2023/11/29 10:40:14;;;;;;;7.23;3.47;;;;;;;;;;5059322;28;20107;-82
2023/11/29 10:42:41;;;;;;;5.90;3.17;;;;;;;;;;5067263;28;20068;-82
2023/11/29 10:45:07;;;;;;;7.37;3.60;;;;;;;;;;5061773;28;20480;-83
2023/11/29 10:47:36;;;;;;;10.77;3.60;;;;;;;;;;5058074;28;20021;-82
2023/11/29 10:50:05;;;;;;;7.37;2.60;;;;;;;;;;5053516;28;20013;-82
2023/11/29 10:52:30;;;;;;;5.90;3.03;;;;;;;;;;5053593;28;20031;-82
2023/11/29 10:54:56;;;;;;;6.77;2.70;;;;;;;;;;5070668;28;20017;-82
2023/11/29 10:57:26;;;;;;;5.77;2.93;;;;;;;;;;5064271;28;20087;-82
2023/11/29 10:59:58;;;;;;;8.13;2.93;;;;;;;;;;5069058;28;20035;-82
2023/11/29 11:02:27;;;;;;;5.38;2.75;;;;;;;;;;5105260;28;20025;-82
2023/11/29 11:05:01;;;;;;;8.67;3.13;;;;;;;;;;5074528;28;20544;-82
2023/11/29 11:07:39;;;;;;;11.43;3.80;;;;;;;;;;5070496;28;20017;-82
2023/11/29 11:10:12;;;;;;;6.70;3.33;;;;;;;;;;5070365;28;20067;-82
2023/11/29 11:12:37;;;;;;;;;;;;;;;;;;5063297;28;20356;-82
2023/11/29 11:15:07;;;;;;;6.73;3.10;;;;;;;;;;5072838;28;19912;-82
2023/11/29 11:17:32;;;;;;;10.10;2.37;;;;;;;;;;5072429;28;20016;-83
2023/11/29 11:20:03;;;;;;;6.40;2.90;;;;;;;;;;5069813;28;20524;-82
2023/11/29 11:22:34;;;;;;;8.23;2.87;;;;;;;;;;5069470;28;20024;-82
2023/11/29 11:25:07;;;;;;;5.88;2.90;;;;;;;;;;5073042;28;20071;-82
2023/11/29 11:27:37;;;;;;;10.53;3.20;;;;;;;;;;5071718;28;20017;-82
2023/11/29 11:30:14;;;;;;;12.00;3.23;;;;;;;;;;5072574;28;20127;-82
2023/11/29 11:32:44;;;;;;;6.87;3.33;;;;;;;;;;5060115;28;20090;-83
2023/11/29 11:35:24;;;;;;;6.30;2.67;;;;;;;;;;5065859;28;20020;-84
2023/11/29 11:37:49;;;;;;;9.43;3.80;;;;;;;;;;5060825;28;20092;-84
2023/11/29 11:40:15;;;;;;;11.80;3.37;;;;;;;;;;5072600;28;20120;-84
2023/11/29 11:42:41;;;;;;;5.27;2.93;;;;;;;;;;5072316;28;20353;-84
2023/11/29 11:45:07;;;;;;;7.97;3.10;;;;;;;;;;5071800;28;20177;-84
2023/11/29 11:47:32;;;;;;;7.53;3.30;;;;;;;;;;5071852;28;20075;-84
2023/11/29 11:49:58;;;;;;;11.33;4.00;;;;;;;;;;5072526;28;20024;-84
2023/11/29 11:52:23;;;;;;;5.30;2.50;;;;;;;;;;5072301;28;20031;-84
2023/11/29 11:54:49;;;;;;;7.40;2.60;;;;;;;;;;5060817;28;20134;-83
2023/11/29 11:57:15;;;;;;;5.73;3.53;;;;;;;;;;5070016;28;20042;-84
2023/11/29 11:59:40;;;;;;;10.23;3.30;;;;;;;;;;5073839;28;20126;-84
2023/11/29 12:02:06;;;;;;;5.10;2.40;;;;;;;;;;5071915;28;20019;-84
2023/11/29 12:04:31;;;;;;;10.50;3.40;;;;;;;;;;5072348;28;20468;-84
2023/11/29 12:06:57;;;;;;;5.37;2.77;;;;;;;;;;5071970;28;20030;-84
2023/11/29 12:09:22;;;;;;;5.13;2.90;;;;;;;;;;5071817;28;20028;-84
2023/11/29 12:11:48;;;;;;;6.27;3.10;;;;;;;;;;5070496;28;20383;-84
2023/11/29 12:14:16;;;;;;;6.67;3.03;;;;;;;;;;5070474;28;20036;-83
2023/11/29 12:16:41;;;;;;;8.97;2.80;;;;;;;;;;5073022;28;20027;-84
2023/11/29 12:19:10;;;;;;;7.73;2.87;;;;;;;;;;5071164;28;20032;-83
2023/11/29 12:21:35;;;;;;;6.90;2.87;;;;;;;;;;5070920;28;20016;-84
2023/11/29 12:24:04;;;;;;;8.07;3.23;;;;;;;;;;5071194;28;20040;-83
2023/11/29 12:26:29;;;;;;;6.97;2.60;;;;;;;;;;5063082;28;20147;-84
2023/11/29 12:28:57;;;;;;;9.90;2.47;;;;;;;;;;5072465;28;20094;-84
2023/11/29 12:31:23;;;;;;;8.03;2.37;;;;;;;;;;5071368;28;20475;-84
2023/11/29 12:33:48;;;;;;;6.70;2.63;;;;;;;;;;5072912;28;20028;-84
2023/11/29 12:36:14;;;;;;;5.03;2.13;;;;;;;;;;5071905;28;20104;-83
2023/11/29 12:38:39;;;;;;;5.13;1.97;;;;;;;;;;5070975;28;20012;-82
2023/11/29 12:41:04;;;;;;;8.67;1.97;;;;;;;;;;5071087;28;20028;-83
2023/11/29 12:43:30;;;;;;;13.13;2.27;;;;;;;;;;5070945;28;20020;-83
2023/11/29 12:45:55;;;;;;;8.00;2.37;;;;;;;;;;5070896;28;20032;-82
2023/11/29 12:48:21;;;;;;;3.30;1.57;;;;;;;;;;5071023;28;20012;-82
2023/11/29 12:50:46;;;;;;;6.37;2.00;;;;;;;;;;5070341;28;20414;-82
2023/11/29 12:53:15;;;;;;;3.33;2.07;;;;;;;;;;5069589;28;20024;-81
2023/11/29 12:55:40;;;;;;;6.00;2.30;;;;;;;;;;5071405;28;20039;-81
2023/11/29 12:58:06;;;;;;;6.47;2.40;;;;;;;;;;5064901;28;20020;-81
2023/11/29 13:00:31;;;;;;;3.33;1.97;;;;;;;;;;5061069;28;20549;-81
2023/11/29 13:02:57;;;;;;;4.63;2.57;;;;;;;;;;5067643;28;20017;-82
2023/11/29 13:05:23;;;;;;;4.70;2.30;;;;;;;;;;5067207;28;20467;-84
2023/11/29 13:07:48;;;;;;;9.93;2.77;;;;;;;;;;5061343;28;20016;-84
2023/11/29 13:10:13;;;;;;;5.93;2.40;;;;;;;;;;5061848;28;20135;-84
2023/11/29 13:12:38;;;;;;;4.83;2.03;;;;;;;;;;5058199;28;20099;-85
2023/11/29 13:15:04;;;;;;;6.40;2.87;;;;;;;;;;5072109;28;20134;-85
2023/11/29 13:17:29;;;;;;;9.80;2.20;;;;;;;;;;5069421;28;20024;-85
2023/11/29 13:19:54;;;;;;;4.33;2.50;;;;;;;;;;5065313;28;20024;-84
2023/11/29 13:22:20;;;;;;;9.70;2.83;;;;;;;;;;5081132;28;20020;-84
2023/11/29 13:24:45;;;;;;;8.70;2.27;;;;;;;;;;5077640;28;20013;-85
2023/11/29 13:27:10;;;;;;;5.00;1.90;;;;;;;;;;5082222;28;20076;-85
2023/11/29 13:29:35;;;;;;;3.30;1.83;;;;;;;;;;5077391;28;20024;-85
2023/11/29 13:32:01;;;;;;;6.43;2.30;;;;;;;;;;5077588;28;20127;-84
2023/11/29 13:34:27;;;;;;;5.53;1.90;;;;;;;;;;5076794;28;20111;-84
2023/11/29 13:36:52;;;;;;;4.83;1.50;;;;;;;;;;5077480;28;20424;-84
2023/11/29 13:39:17;;;;;;;6.87;2.33;;;;;;;;;;5077325;28;20024;-84
2023/11/29 13:41:42;;;;;;;6.23;1.50;;;;;;;;;;5077347;28;20016;-83
2023/11/29 13:44:07;;;;;;;4.40;1.43;;;;;;;;;;5076875;28;20020;-83
2023/11/29 13:46:33;;;;;;;5.17;1.70;;;;;;;;;;5078671;28;20082;-84
2023/11/29 13:48:58;;;;;;;3.27;1.77;;;;;;;;;;5076892;28;20357;-83
2023/11/29 13:51:23;;;;;;;2.77;1.67;;;;;;;;;;5077427;28;20051;-83
2023/11/29 13:53:49;;;;;;;2.90;1.70;;;;;;;;;;5074013;28;20021;-83
2023/11/29 13:56:16;;;;;;;4.17;1.63;;;;;;;;;;5069442;28;20024;-83
2023/11/29 13:58:42;;;;;;;2.70;1.20;;;;;;;;;;5076900;28;20029;-82
2023/11/29 14:01:07;;;;;;;2.17;1.00;;;;;;;;;;5077243;28;20081;-83
2023/11/29 14:03:32;;;;;;;1.50;0.80;;;;;;;;;;5064158;28;20029;-83
2023/11/29 14:05:58;;;;;;;1.50;0.90;;;;;;;;;;5076668;28;20042;-83
2023/11/29 14:08:24;;;;;;;2.53;0.60;;;;;;;;;;5078790;28;20024;-84
2023/11/29 14:10:49;;;;;;;1.57;0.97;;;;;;;;;;5075115;28;20067;-84
2023/11/29 14:13:14;;;;;;;1.97;0.97;;;;;;;;;;5076826;28;20533;-84
2023/11/29 14:15:40;;;;;;;2.43;0.97;;;;;;;;;;5078122;28;20498;-84
2023/11/29 14:18:05;;;;;;;3.57;1.10;;;;;;;;;;5077507;28;20462;-83
2023/11/29 14:20:31;;;;;;;1.50;1.10;;;;;;;;;;5075994;28;20036;-82
2023/11/29 14:22:56;;;;;;;3.10;1.00;;;;;;;;;;5079221;28;20031;-83
2023/11/29 14:25:21;;;;;;;2.23;1.20;;;;;;;;;;5076933;28;20104;-83
2023/11/29 14:27:47;;;;;;;3.33;1.23;;;;;;;;;;5076808;28;20040;-81
2023/11/29 14:30:13;;;;;;;1.60;0.90;;;;;;;;;;5077757;28;20034;-82